Time;durP1;ratioP1;P1;durP2;ratioP2;P2;SDS_P1;SDS_P2;PMS_P1;PMS_P2;Temp;Humidity;BMP_temperature;BMP_pressure;BME280_temperature;BME280_humidity;BME280_pressure;Samples;Min_cycle;Max_cycle;Signal;HPM_P1;HPM_P2
2022/08/24 00:03:34;;;;;;;;;;;23.60;49.60;;;21.77;52.20;101568.66;12256461;19;19911;-85
2022/08/24 00:07:36;;;;;;;;;;;23.70;49.70;;;21.86;52.44;101589.09;12256233;19;19917;-85
2022/08/24 00:11:38;;;;;;;;;;;23.40;49.60;;;21.64;52.68;101559.13;12254189;19;19932;-85
2022/08/24 00:15:40;;;;;;;;;;;23.40;49.70;;;21.81;52.34;101589.50;12255821;19;19914;-85
2022/08/24 00:19:42;;;;;;;;;;;23.40;49.70;;;21.33;52.86;101520.25;12256378;19;19930;-85
2022/08/24 00:23:44;;;;;;;;;;;23.40;49.80;;;21.69;52.53;101572.00;12255285;19;19935;-85
2022/08/24 00:27:46;;;;;;;;;;;23.30;49.80;;;21.67;52.78;101573.94;12249947;19;19915;-84
2022/08/24 00:31:48;;;;;;;;;;;23.30;49.80;;;21.67;52.59;101583.75;12247118;19;20319;-85
2022/08/24 00:35:50;;;;;;;;;;;23.60;49.80;;;21.55;52.76;101580.34;12259260;19;19918;-85
2022/08/24 00:39:51;;;;;;;;;;;23.20;49.70;;;21.50;52.68;101575.44;12259845;19;19922;-84
2022/08/24 00:43:57;;;;;;;;;;;23.20;49.70;;;21.18;52.80;101538.38;12260884;19;19918;-84
2022/08/24 00:48:01;;;;;;;;;;;23.10;49.80;;;21.47;52.92;101588.16;12261484;19;19911;-84
2022/08/24 00:52:16;;;;;;;;;;;23.10;49.80;;;21.48;52.61;101587.19;12257499;19;19927;-85
2022/08/24 00:56:25;;;;;;;;;;;23.10;49.80;;;21.45;52.99;101593.63;12258569;19;19935;-84
2022/08/24 01:00:33;;;;;;;;;;;23.10;49.90;;;21.23;52.91;101559.25;12258907;19;19917;-84
2022/08/24 01:04:42;;;;;;;;;;;23.00;49.90;;;21.42;52.62;101601.88;12256551;19;19936;-84
2022/08/24 01:08:44;;;;;;;;;;;23.00;49.90;;;21.29;52.75;101598.56;12256215;19;20029;-84
2022/08/24 01:12:49;;;;;;;;;;;23.00;49.90;;;21.04;52.96;101563.50;12253576;19;19939;-84
2022/08/24 01:21:14;;;;;;;;;;;22.90;49.80;;;21.25;52.61;101613.91;12259167;19;19922;-84
2022/08/24 01:25:16;;;;;;;;;;;22.90;49.90;;;21.19;52.97;101607.31;12259409;19;19918;-85
2022/08/24 01:29:24;;;;;;;;;;;23.10;50.10;;;21.15;53.21;101594.44;12254214;19;19915;-84
2022/08/24 01:33:30;;;;;;;;;;;22.80;50.00;;;21.07;52.86;101591.59;12256184;19;19935;-84
2022/08/24 01:37:32;;;;;;;;;;;22.80;50.00;;;21.12;52.72;101606.16;12252341;19;19978;-84
2022/08/24 01:41:33;;;;;;;;;;;22.90;50.10;;;21.14;52.88;101606.03;12254732;19;19918;-85
2022/08/24 01:45:37;;;;;;;;;;;22.70;50.00;;;20.97;52.90;101584.41;12256222;19;19915;-84
2022/08/24 01:49:42;;;;;;;;;;;22.70;50.00;;;21.00;53.09;101593.94;12256768;19;19915;-86
2022/08/24 01:53:44;;;;;;;;;;;22.80;50.10;;;20.90;52.90;101590.38;12257632;19;19914;-84
2022/08/24 01:57:46;;;;;;;;;;;22.70;50.00;;;20.86;53.35;101581.00;12251025;19;20668;-85
2022/08/24 02:01:55;;;;;;;;;;;22.80;50.10;;;20.85;52.97;101580.16;12251491;19;20358;-84
2022/08/24 02:05:57;;;;;;;;;;;22.60;50.20;;;20.85;53.03;101582.81;12256644;19;19915;-84
2022/08/24 02:09:59;;;;;;;;;;;22.60;50.70;;;20.85;53.37;101590.78;12254609;19;19946;-84
2022/08/24 02:14:01;;;;;;;;;;;22.60;50.50;;;20.93;53.59;101601.59;12253860;19;19919;-85
2022/08/24 02:18:03;;;;;;;;;;;22.60;50.60;;;20.83;53.18;101590.06;12252666;19;19930;-84
2022/08/24 02:22:05;;;;;;;;;;;22.50;50.80;;;20.91;53.67;101597.38;12252983;19;20332;-84
2022/08/24 02:26:08;;;;;;;;;;;22.50;51.00;;;20.63;53.60;101557.25;12254158;19;19919;-85
2022/08/24 02:30:10;;;;;;;;;;;22.80;51.20;;;21.02;53.47;101615.88;12253420;19;20296;-84
2022/08/24 02:34:13;;;;;;;;;;;22.60;51.20;;;20.95;53.38;101590.81;12254912;19;19923;-83
2022/08/24 02:38:15;;;;;;;;;;;22.60;51.20;;;21.05;53.68;101604.16;12253988;19;19925;-86
2022/08/24 02:42:17;;;;;;;;;;;22.60;51.30;;;21.06;53.59;101596.03;12251951;19;19974;-84
2022/08/24 02:46:25;;;;;;;;;;;22.70;51.50;;;21.14;53.54;101609.53;12253228;19;19949;-85
2022/08/24 02:50:27;;;;;;;;;;;22.60;51.60;;;21.10;53.44;101596.66;12251117;19;20346;-84
2022/08/24 02:54:29;;;;;;;;;;;22.70;51.70;;;21.12;54.03;101595.53;12249546;19;19915;-84
2022/08/24 02:58:30;;;;;;;;;;;22.70;51.70;;;21.12;53.63;101600.03;12248959;19;20574;-85
2022/08/24 03:02:32;;;;;;;;;;;22.70;51.60;;;21.08;53.87;101598.59;12248052;19;20271;-85
2022/08/24 03:06:34;;;;;;;;;;;22.90;51.40;;;21.19;54.19;101607.31;12254762;19;19919;-85
2022/08/24 03:10:36;;;;;;;;;;;22.80;51.70;;;21.23;53.92;101596.44;12254123;19;19982;-84
2022/08/24 03:14:39;;;;;;;;;;;22.80;51.60;;;21.19;54.12;101588.72;12249492;19;20257;-84
2022/08/24 03:18:42;;;;;;;;;;;22.80;51.90;;;21.26;54.27;101588.19;12248993;19;19929;-86
2022/08/24 03:22:45;;;;;;;;;;;22.70;51.90;;;21.35;53.95;101604.16;12243949;19;19950;-86
2022/08/24 03:26:47;;;;;;;;;;;22.90;51.90;;;21.30;54.23;101597.56;12249016;19;19915;-85
2022/08/24 03:30:49;;;;;;;;;;;22.90;51.80;;;21.36;54.11;101603.22;12246223;19;19930;-84
2022/08/24 03:34:53;;;;;;;;;;;23.00;51.80;;;21.30;54.00;101590.44;12248192;19;19970;-84
2022/08/24 03:38:54;;;;;;;;;;;23.00;51.70;;;21.39;54.24;101607.44;12249265;19;19975;-83
2022/08/24 03:42:58;;;;;;;;;;;23.00;51.70;;;21.32;54.55;101606.25;12245444;19;19920;-84
2022/08/24 03:47:00;;;;;;;;;;;22.90;51.60;;;21.31;54.38;101601.94;12248579;19;19928;-83
2022/08/24 03:51:04;;;;;;;;;;;23.00;51.70;;;21.03;54.01;101556.47;12246309;19;19939;-82
2022/08/24 03:55:07;;;;;;;;;;;22.90;51.60;;;21.29;54.16;101601.22;12246279;19;19979;-83
2022/08/24 03:59:12;;;;;;;;;;;22.90;51.60;;;21.25;53.94;101597.13;12248362;19;19930;-82
2022/08/24 04:03:17;;;;;;;;;;;23.10;51.70;;;21.26;54.15;101601.47;12248080;19;19911;-83
2022/08/24 04:07:19;;;;;;;;;;;22.90;51.60;;;20.98;54.11;101566.66;12244173;19;19923;-83
2022/08/24 04:11:24;;;;;;;;;;;23.20;52.10;;;21.28;54.33;101615.44;12240566;19;19947;-83
2022/08/24 04:15:25;;;;;;;;;;;23.20;51.60;;;21.27;54.34;101624.41;12246845;19;19911;-83
2022/08/24 04:19:27;;;;;;;;;;;22.90;51.50;;;21.23;54.31;101621.19;12247326;19;19926;-83
2022/08/24 04:23:32;;;;;;;;;;;22.90;51.50;;;21.20;54.16;101619.63;12243215;19;19922;-83
2022/08/24 04:27:33;;;;;;;;;;;22.90;51.90;;;21.17;54.58;101625.22;12243851;19;19926;-83
2022/08/24 04:31:36;;;;;;;;;;;22.90;51.60;;;20.76;54.29;101563.16;12241763;19;19949;-83
2022/08/24 04:35:40;;;;;;;;;;;22.90;51.60;;;21.11;54.02;101628.38;12238925;19;20310;-83
2022/08/24 04:39:42;;;;;;;;;;;22.90;51.60;;;20.93;54.41;101606.91;12242724;19;19927;-84
2022/08/24 04:44:06;;;;;;;;;;;22.90;51.70;;;21.03;54.56;101620.22;12241977;19;19990;-83
2022/08/24 04:48:08;;;;;;;;;;;22.80;51.70;;;21.09;54.19;101638.31;12232312;19;19952;-83
2022/08/24 04:52:10;;;;;;;;;;;22.80;51.70;;;21.08;54.27;101646.41;12235887;19;19922;-83
2022/08/24 04:56:25;;;;;;;;;;;22.70;51.70;;;20.92;54.32;101626.44;12241113;19;19914;-84
2022/08/24 05:00:30;;;;;;;;;;;22.70;51.60;;;20.63;54.61;101589.09;12239199;19;19936;-83
2022/08/24 05:04:31;;;;;;;;;;;22.70;51.70;;;21.05;54.69;101651.97;12240853;19;19910;-83
2022/08/24 05:08:33;;;;;;;;;;;22.70;51.80;;;21.09;54.79;101658.69;12242771;19;19915;-84
2022/08/24 05:12:35;;;;;;;;;;;22.70;51.90;;;21.06;54.73;101657.13;12237440;19;19990;-85
2022/08/24 05:16:43;;;;;;;;;;;22.70;52.30;;;21.16;54.56;101671.31;12240356;19;20348;-83
2022/08/24 05:20:46;;;;;;;;;;;22.80;52.00;;;21.14;54.69;101661.78;12248919;19;20238;-84
2022/08/24 05:24:49;;;;;;;;;;;22.70;52.50;;;21.13;55.05;101655.66;12252051;19;19925;-83
2022/08/24 05:28:54;;;;;;;;;;;22.80;52.20;;;21.16;54.57;101654.56;12254561;19;19914;-83
2022/08/24 05:32:56;;;;;;;;;;;22.90;52.30;;;21.30;54.70;101666.66;12246287;19;19933;-84
2022/08/24 05:36:58;;;;;;;;;;;22.90;52.40;;;21.27;54.97;101656.28;12250067;19;19915;-85
2022/08/24 05:41:10;;;;;;;;;;;22.90;52.40;;;21.14;54.57;101635.22;12250227;19;19917;-85
2022/08/24 05:45:12;;;;;;;;;;;23.00;52.50;;;21.25;54.63;101653.75;12253389;19;19919;-84
2022/08/24 05:49:14;;;;;;;;;;;23.00;52.40;;;21.29;54.87;101660.50;12252696;19;19940;-84
2022/08/24 05:53:16;;;;;;;;;;;23.00;52.50;;;21.41;54.94;101674.56;12253639;19;19927;-87
2022/08/24 05:57:20;;;;;;;;;;;23.10;52.70;;;21.47;55.14;101671.41;12248887;19;19919;-86
2022/08/24 06:01:57;;;;;;;;;;;23.10;52.60;;;21.60;55.14;101689.78;12247584;19;20259;-84
2022/08/24 06:06:00;;;;;;;;;;;23.20;52.80;;;21.71;54.95;101684.38;12251229;19;19915;-85
2022/08/24 06:10:06;;;;;;;;;;;23.20;52.80;;;21.81;55.19;101687.06;12250225;19;19974;-84
2022/08/24 06:14:13;;;;;;;;;;;23.30;53.00;;;21.83;54.95;101674.47;12250961;19;19958;-85
2022/08/24 06:18:28;;;;;;;;;;;23.40;53.10;;;21.95;55.24;101673.38;12252331;19;19934;-86
2022/08/24 06:22:30;;;;;;;;;;;23.50;53.20;;;22.07;55.37;101677.63;12248602;19;19921;-85
2022/08/24 06:31:02;;;;;;;;;;;23.70;53.40;;;22.03;55.55;101665.56;12247338;19;19914;-86
2022/08/24 06:35:04;;;;;;;;;;;23.80;53.40;;;22.17;55.02;101669.69;12246393;19;19926;-85
2022/08/24 06:39:07;;;;;;;;;;;23.80;53.40;;;22.33;55.08;101687.78;12248488;19;19910;-83
2022/08/24 06:43:09;;;;;;;;;;;23.90;53.40;;;22.36;55.00;101676.03;12242069;19;20246;-85
2022/08/24 06:47:15;;;;;;;;;;;24.00;53.50;;;22.54;55.13;101691.16;12239753;19;19918;-85
2022/08/24 06:51:18;;;;;;;;;;;24.00;53.70;;;22.52;55.31;101678.97;12242355;19;20279;-84
2022/08/24 06:55:20;;;;;;;;;;;24.10;53.90;;;22.60;55.59;101684.47;12240378;19;19922;-86
2022/08/24 06:59:22;;;;;;;;;;;24.20;54.00;;;22.74;55.40;101693.84;12247429;19;19915;-85
2022/08/24 07:03:24;;;;;;;;;;;24.30;53.80;;;22.80;55.49;101690.63;12246363;19;19933;-84
2022/08/24 07:07:34;;;;;;;;;;;24.40;53.70;;;22.93;55.64;101696.50;12248210;19;19914;-84
2022/08/24 07:11:36;;;;;;;;;;;24.50;53.80;;;23.00;55.40;101683.47;12245399;19;19919;-84
2022/08/24 07:15:39;;;;;;;;;;;24.60;54.20;;;23.05;55.43;101685.72;12247679;19;19930;-86
2022/08/24 07:19:47;;;;;;;;;;;24.70;53.80;;;23.12;55.43;101690.34;12241377;19;20409;-86
2022/08/24 07:24:01;;;;;;;;;;;24.80;53.90;;;22.92;55.58;101654.84;12238226;19;19923;-88
2022/08/24 07:28:07;;;;;;;;;;;24.80;53.80;;;23.38;55.64;101711.88;12240483;19;19915;-90
2022/08/24 07:32:09;;;;;;;;;;;24.90;53.90;;;23.18;55.43;101656.94;12245599;19;19939;-90
2022/08/24 07:36:16;;;;;;;;;;;25.00;53.80;;;23.53;55.77;101687.44;12246910;19;20308;-87
2022/08/24 07:40:18;;;;;;;;;;;25.10;53.60;;;23.80;55.41;101719.50;12245994;19;19933;-90
2022/08/24 07:44:20;;;;;;;;;;;25.20;53.90;;;23.74;55.65;101701.41;12247463;19;20295;-89
2022/08/24 07:48:22;;;;;;;;;;;25.30;53.60;;;23.96;55.71;101731.38;12247001;19;19922;-88
2022/08/24 07:52:24;;;;;;;;;;;25.40;53.60;;;23.65;55.21;101678.25;12242132;19;19922;-90
2022/08/24 07:56:30;;;;;;;;;;;25.50;53.60;;;23.63;55.33;101662.41;12242557;19;21960;-90
2022/08/24 08:00:35;;;;;;;;;;;25.60;53.60;;;23.71;55.42;101674.16;12244991;19;19922;-89
2022/08/24 08:04:41;;;;;;;;;;;25.60;53.50;;;23.82;55.29;101685.50;12244506;19;20238;-89
2022/08/24 08:08:43;;;;;;;;;;;25.70;53.20;;;23.97;55.22;101706.34;12236822;19;19919;-89
2022/08/24 08:12:45;;;;;;;;;;;25.70;53.10;;;24.11;55.32;101727.19;12238812;19;19918;-91
2022/08/24 08:16:47;;;;;;;;;;;25.70;53.30;;;24.18;55.42;101736.31;12241008;19;19915;-89
2022/08/24 08:20:48;;;;;;;;;;;25.90;53.40;;;24.27;55.24;101755.91;12242061;19;19911;-88
2022/08/24 08:24:50;;;;;;;;;;;25.80;53.20;;;24.22;55.51;101739.50;12237861;19;20301;-90
2022/08/24 08:28:52;;;;;;;;;;;25.90;53.30;;;24.13;55.20;101737.75;12244105;19;19926;-90
2022/08/24 08:32:53;;;;;;;;;;;25.80;53.10;;;24.22;55.31;101761.72;12239116;19;19933;-89
2022/08/24 08:36:56;;;;;;;;;;;25.80;53.00;;;24.13;55.50;101759.09;12240382;19;19914;-89
2022/08/24 08:41:20;;;;;;;;;;;25.80;53.00;;;24.20;55.31;101776.22;12240823;19;19919;-92
2022/08/24 08:46:02;;;;;;;;;;;25.80;52.80;;;24.08;55.34;101764.88;12243002;19;19919;-88
2022/08/24 08:50:28;;;;;;;;;;;25.70;52.70;;;24.11;55.50;101777.06;12241141;19;19938;-89
2022/08/24 08:54:57;;;;;;;;;;;25.70;53.00;;;24.13;55.61;101780.44;12245177;19;19922;-89
2022/08/24 08:59:34;;;;;;;;;;;25.70;53.40;;;24.07;55.86;101765.88;12246885;19;19923;-89
2022/08/24 09:04:08;;;;;;;;;;;25.70;54.00;;;24.15;55.55;101784.66;12248121;19;19919;-89
2022/08/24 09:08:49;;;;;;;;;;;25.70;53.30;;;24.17;55.78;101780.00;12242787;19;19966;-90
2022/08/24 09:13:19;;;;;;;;;;;25.70;53.60;;;24.26;55.52;101779.09;12244860;19;19918;-89
2022/08/24 09:18:00;;;;;;;;;;;25.80;53.20;;;24.35;55.98;101769.34;12249803;19;19933;-89
2022/08/24 09:22:15;;;;;;;;;;;25.80;53.50;;;24.38;55.75;101757.53;12248393;19;20330;-87
2022/08/24 09:26:28;;;;;;;;;;;25.90;53.60;;;24.17;55.51;101705.28;12247367;19;19957;-90
2022/08/24 09:30:41;;;;;;;;;;;26.00;53.30;;;24.65;55.36;101776.22;12252973;19;19929;-90
2022/08/24 09:35:01;;;;;;;;;;;26.10;53.30;;;24.74;55.46;101777.16;12253635;19;19930;-90
2022/08/24 09:39:17;;;;;;;;;;;26.10;53.40;;;24.73;55.34;101765.66;12254163;19;19935;-88
2022/08/24 09:43:56;;;;;;;;;;;26.20;53.20;;;24.89;55.45;101772.13;12250198;19;19911;-88
2022/08/24 09:48:04;;;;;;;;;;;26.30;53.10;;;24.93;55.64;101750.28;12251538;19;20401;-89
2022/08/24 09:52:41;;;;;;;;;;;26.40;53.50;;;25.36;55.85;101766.53;12247539;19;19927;-88
2022/08/24 09:56:54;;;;;;;;;;;26.60;53.60;;;25.52;55.80;101763.97;12248378;19;20326;-88
2022/08/24 10:01:18;;;;;;;;;;;26.80;53.50;;;25.57;55.25;101767.03;12248461;19;19930;-89
2022/08/24 10:05:51;;;;;;;;;;;26.90;53.20;;;25.67;55.46;101761.53;12246573;19;20242;-88
2022/08/24 10:10:09;;;;;;;;;;;27.10;53.20;;;25.73;55.57;101760.06;12248420;19;19930;-88
2022/08/24 10:14:44;;;;;;;;;;;27.20;53.10;;;25.78;55.61;101755.91;12249392;19;20290;-86
2022/08/24 10:19:17;;;;;;;;;;;27.20;53.00;;;25.89;55.29;101754.81;12247630;19;19944;-85
2022/08/24 10:23:49;;;;;;;;;;;27.30;53.10;;;26.02;55.32;101749.03;12248894;19;20214;-85
2022/08/24 10:28:01;;;;;;;;;;;27.40;53.10;;;26.03;55.53;101745.34;12253475;19;19918;-86
2022/08/24 10:32:42;;;;;;;;;;;27.50;53.00;;;26.12;55.11;101740.88;12246936;19;19914;-86
2022/08/24 10:37:31;;;;;;;;;;;27.50;52.90;;;26.19;54.98;101736.53;12247812;19;19959;-86
2022/08/24 10:41:48;;;;;;;;;;;27.60;52.80;;;26.28;55.36;101738.25;12248360;19;19957;-85
2022/08/24 10:46:19;;;;;;;;;;;27.70;52.80;;;26.39;55.12;101739.78;12250238;19;19919;-85
2022/08/24 10:50:49;;;;;;;;;;;27.80;52.80;;;26.45;55.10;101729.25;12248631;19;20175;-85
2022/08/24 10:54:53;;;;;;;;;;;27.90;52.80;;;26.38;54.99;101712.19;12248271;19;19939;-85
2022/08/24 10:59:23;;;;;;;;;;;28.00;52.80;;;26.59;55.22;101729.63;12248873;19;20340;-84
2022/08/24 11:03:25;;;;;;;;;;;28.00;52.70;;;26.48;55.15;101712.00;12245884;19;19918;-84
2022/08/24 11:07:36;;;;;;;;;;;28.10;52.70;;;26.64;54.88;101720.09;12242715;19;19947;-84
2022/08/24 11:11:42;;;;;;;;;;;28.20;52.80;;;26.78;55.13;101721.28;12240701;19;20260;-84
2022/08/24 11:15:55;;;;;;;;;;;28.20;52.60;;;26.87;54.79;101714.94;12238216;19;19950;-84
2022/08/24 11:20:23;;;;;;;;;;;28.30;52.60;;;27.01;55.04;101705.38;12240976;19;19914;-85
2022/08/24 11:24:44;;;;;;;;;;;28.40;52.80;;;27.20;54.79;101711.41;12247029;19;19915;-84
2022/08/24 11:28:56;;;;;;;;;;;28.50;52.90;;;27.33;54.73;101717.94;12244009;19;20326;-85
2022/08/24 11:33:31;;;;;;;;;;;28.70;52.80;;;27.47;54.41;101719.06;12245340;19;19915;-87
2022/08/24 11:37:36;;;;;;;;;;;28.80;52.30;;;27.50;54.65;101712.53;12250942;19;20370;-86
2022/08/24 11:42:00;;;;;;;;;;;28.90;52.20;;;27.63;54.76;101712.81;12246884;19;20132;-87
2022/08/24 11:46:21;;;;;;;;;;;29.00;52.40;;;27.78;54.74;101708.38;12250766;19;20178;-87
2022/08/24 11:50:38;;;;;;;;;;;29.10;52.30;;;27.97;54.46;101709.00;12250909;19;19918;-88
2022/08/24 11:55:18;;;;;;;;;;;29.20;52.30;;;28.08;54.71;101702.41;12259052;19;20384;-85
2022/08/24 12:04:39;;;;;;;;;;;29.50;52.20;;;28.38;54.29;101698.03;12245807;19;19949;-87
2022/08/24 12:09:01;;;;;;;;;;;29.70;52.20;;;28.55;54.15;101705.00;12251537;19;20442;-83
2022/08/24 12:13:24;;;;;;;;;;;29.90;52.30;;;28.74;54.03;101701.00;12246614;19;19943;-84
2022/08/24 12:17:37;;;;;;;;;;;30.00;52.50;;;28.58;54.08;101645.50;12245751;19;19989;-84
2022/08/24 12:21:44;;;;;;;;;;;30.20;52.20;;;28.91;53.90;101677.47;12244911;19;19927;-83
2022/08/24 12:26:01;;;;;;;;;;;30.30;52.00;;;29.03;53.63;101696.69;12244111;19;19931;-84
2022/08/24 12:30:13;;;;;;;;;;;30.30;51.90;;;28.93;53.41;101680.84;12241519;19;19911;-84
2022/08/24 12:34:35;;;;;;;;;;;30.40;51.80;;;28.99;53.41;101690.84;12256919;19;19947;-83
2022/08/24 12:38:42;;;;;;;;;;;30.40;50.60;;;28.89;53.30;101668.75;12256886;19;19978;-84
2022/08/24 12:42:48;;;;;;;;;;;30.40;50.80;;;28.84;53.75;101655.88;12253179;19;19948;-85
2022/08/24 12:46:53;;;;;;;;;;;30.40;51.40;;;29.00;53.77;101668.34;12256771;19;19926;-83
2022/08/24 12:51:09;;;;;;;;;;;30.50;51.20;;;29.11;53.67;101678.69;12250989;19;19922;-83
2022/08/24 12:55:20;;;;;;;;;;;30.50;51.10;;;29.20;53.35;101678.59;12251859;19;19932;-82
2022/08/24 12:59:41;;;;;;;;;;;30.60;51.20;;;29.31;53.44;101681.66;12255882;19;19922;-82
2022/08/24 13:03:44;;;;;;;;;;;30.60;51.10;;;29.40;53.18;101682.38;12258637;19;20263;-83
2022/08/24 13:07:53;;;;;;;;;;;31.00;51.30;;;29.42;53.37;101672.28;12254264;19;19923;-83
2022/08/24 13:11:57;;;;;;;;;;;30.80;51.20;;;29.49;53.01;101686.66;12245280;19;19915;-82
2022/08/24 13:16:00;;;;;;;;;;;30.90;51.10;;;29.56;52.89;101678.66;12254472;19;20318;-83
2022/08/24 13:20:28;;;;;;;;;;;30.90;50.80;;;29.66;52.98;101683.81;12253514;19;19914;-83
2022/08/24 13:24:29;;;;;;;;;;;31.00;50.70;;;29.74;52.61;101691.78;12256536;19;19914;-83
2022/08/24 13:28:43;;;;;;;;;;;31.00;51.00;;;29.81;52.58;101681.91;12254358;19;19927;-84
2022/08/24 13:32:48;;;;;;;;;;;31.10;50.70;;;29.75;52.54;101672.72;12244489;19;20291;-82
2022/08/24 13:37:15;;;;;;;;;;;31.20;50.80;;;29.88;52.46;101680.16;12253250;19;19922;-83
2022/08/24 13:41:27;;;;;;;;;;;31.20;51.00;;;29.80;52.04;101680.25;12252636;19;19919;-83
2022/08/24 13:45:57;;;;;;;;;;;31.20;50.80;;;29.67;52.17;101674.69;12255064;19;19939;-84
2022/08/24 13:50:10;;;;;;;;;;;31.20;49.40;;;29.62;52.24;101671.69;12250677;19;20264;-82
2022/08/24 13:54:24;;;;;;;;;;;31.10;49.40;;;29.55;52.30;101659.00;12254696;19;19914;-82
2022/08/24 13:58:51;;;;;;;;;;;31.00;48.50;;;29.66;52.42;101671.19;12247527;19;19911;-83
2022/08/24 14:03:23;;;;;;;;;;;31.00;50.00;;;29.68;51.72;101665.63;12248972;19;19911;-83
2022/08/24 14:07:30;;;;;;;;;;;31.00;50.20;;;29.69;52.07;101661.88;12254100;19;19923;-83
2022/08/24 14:11:51;;;;;;;;;;;31.00;49.80;;;29.82;51.97;101666.63;12251340;19;19935;-83
2022/08/24 14:21:07;;;;;;;;;;;31.20;49.30;;;29.98;52.03;101669.91;12249564;19;19923;-83
2022/08/24 14:25:24;;;;;;;;;;;31.30;49.60;;;29.95;51.83;101656.81;12252442;19;19927;-83
2022/08/24 14:29:30;;;;;;;;;;;31.40;49.90;;;29.96;51.54;101669.25;12251576;19;19933;-82
2022/08/24 14:33:34;;;;;;;;;;;31.40;49.20;;;29.92;51.48;101662.59;12249521;19;19919;-82
2022/08/24 14:38:17;;;;;;;;;;;31.40;49.30;;;29.99;51.33;101679.66;12246546;19;19914;-83
2022/08/24 14:42:38;;;;;;;;;;;31.40;49.50;;;29.96;51.27;101669.25;12247035;19;19915;-83
2022/08/24 14:46:53;;;;;;;;;;;31.30;49.60;;;29.92;51.56;101672.50;12252376;19;19970;-83
2022/08/24 14:51:19;;;;;;;;;;;31.40;49.80;;;29.80;51.54;101658.72;12246795;19;19919;-82
2022/08/24 14:55:33;;;;;;;;;;;31.30;49.50;;;29.82;51.33;101667.44;12249026;19;19953;-83
2022/08/24 14:59:47;;;;;;;;;;;31.20;49.60;;;29.72;51.22;101666.91;12247932;19;19990;-83
2022/08/24 15:04:13;;;;;;;;;;;31.20;49.00;;;29.67;51.57;101658.53;12249583;19;19940;-82
2022/08/24 15:08:41;;;;;;;;;;;31.10;49.20;;;29.61;51.43;101643.13;12247842;19;19951;-83
2022/08/24 15:12:50;;;;;;;;;;;31.10;49.30;;;29.62;51.28;101634.00;12245924;19;19918;-82
2022/08/24 15:17:01;;;;;;;;;;;31.00;49.40;;;29.70;51.38;101631.25;12247679;19;19922;-82
2022/08/24 15:21:21;;;;;;;;;;;31.10;49.40;;;29.86;51.36;101643.66;12247513;19;19915;-83
2022/08/24 15:25:31;;;;;;;;;;;31.10;49.50;;;29.90;51.20;101643.09;12247225;19;19922;-82
2022/08/24 15:29:34;;;;;;;;;;;31.20;49.60;;;29.84;50.97;101635.78;12245935;19;19935;-83
2022/08/24 15:33:54;;;;;;;;;;;31.20;49.70;;;29.83;51.05;101631.41;12245005;19;20262;-82
2022/08/24 15:37:56;;;;;;;;;;;31.20;48.80;;;29.78;50.88;101639.22;12249151;19;20325;-83
2022/08/24 15:42:03;;;;;;;;;;;31.20;49.50;;;29.77;51.20;101637.56;12246008;19;19927;-81
2022/08/24 15:46:05;;;;;;;;;;;31.20;49.30;;;29.62;51.12;101618.69;12248497;19;19918;-82
2022/08/24 15:50:19;;;;;;;;;;;31.10;49.40;;;29.73;51.06;101636.25;12247561;19;19926;-82
2022/08/24 15:54:29;;;;;;;;;;;31.10;49.50;;;29.74;50.76;101646.00;12246486;19;19915;-83
2022/08/24 15:58:33;;;;;;;;;;;31.10;49.20;;;29.66;50.85;101648.81;12245427;19;19915;-83
2022/08/24 16:02:37;;;;;;;;;;;31.00;48.90;;;29.50;50.77;101625.59;12240440;19;19907;-82
2022/08/24 16:06:44;;;;;;;;;;;31.00;48.10;;;29.50;51.00;101626.41;12249839;19;19919;-82
2022/08/24 16:10:46;;;;;;;;;;;31.00;48.90;;;29.45;50.60;101628.00;12247840;19;19994;-83
2022/08/24 16:14:55;;;;;;;;;;;30.90;48.90;;;29.48;50.58;101624.94;12248122;19;19910;-83
2022/08/24 16:18:58;;;;;;;;;;;30.90;48.90;;;29.46;50.48;101630.53;12247422;19;19929;-82
2022/08/24 16:23:10;;;;;;;;;;;31.10;49.10;;;29.35;50.63;101625.59;12245814;19;19925;-82
2022/08/24 16:27:14;;;;;;;;;;;30.80;49.10;;;29.29;51.07;101615.56;12241798;19;19931;-83
2022/08/24 16:31:41;;;;;;;;;;;30.80;49.00;;;29.39;50.63;101640.34;12243559;19;20294;-82
2022/08/24 16:35:42;;;;;;;;;;;30.80;49.40;;;29.34;50.78;101626.63;12247213;19;19928;-82
2022/08/24 16:39:44;;;;;;;;;;;30.70;48.90;;;29.33;50.59;101627.66;12248047;19;19930;-83
2022/08/24 16:43:47;;;;;;;;;;;30.70;48.90;;;29.23;50.43;101610.94;12245273;19;19915;-82
2022/08/24 16:47:48;;;;;;;;;;;30.70;48.90;;;29.36;50.84;101638.03;12246081;19;19919;-83
2022/08/24 16:51:50;;;;;;;;;;;30.70;49.00;;;29.32;50.50;101642.09;12244216;19;20595;-82
2022/08/24 16:55:51;;;;;;;;;;;30.70;49.00;;;29.23;50.72;101635.16;12244454;19;19919;-82
2022/08/24 16:59:53;;;;;;;;;;;30.70;49.10;;;29.20;50.33;101647.13;12245628;19;19922;-83
2022/08/24 17:03:55;;;;;;;;;;;30.60;49.00;;;29.17;50.63;101646.69;12244811;19;19947;-83
2022/08/24 17:07:58;;;;;;;;;;;30.50;48.90;;;29.05;50.54;101644.41;12246233;19;19925;-82
2022/08/24 17:11:59;;;;;;;;;;;30.50;49.00;;;28.78;50.75;101599.28;12242438;19;19915;-83
2022/08/24 17:16:01;;;;;;;;;;;30.50;48.90;;;28.91;50.60;101642.53;12250165;19;20252;-82
2022/08/24 17:20:08;;;;;;;;;;;30.40;49.00;;;28.94;50.40;101666.34;12254555;19;19915;-83
2022/08/24 17:24:10;;;;;;;;;;;30.30;48.90;;;28.83;50.52;101648.81;12256156;19;19915;-83
2022/08/24 17:28:16;;;;;;;;;;;30.30;48.90;;;28.78;50.67;101655.75;12254236;19;20258;-84
2022/08/24 17:32:17;;;;;;;;;;;30.20;48.80;;;28.76;50.35;101660.47;12256064;19;19935;-84
2022/08/24 17:36:20;;;;;;;;;;;30.20;48.90;;;28.73;50.56;101671.59;12254285;19;19954;-83
2022/08/24 17:40:24;;;;;;;;;;;30.20;49.00;;;28.65;50.84;101667.13;12248772;19;19915;-84
2022/08/24 17:44:28;;;;;;;;;;;30.10;49.00;;;28.62;50.49;101665.63;12250816;19;20320;-82
2022/08/24 17:48:31;;;;;;;;;;;30.00;48.90;;;28.53;50.52;101671.25;12255161;19;19966;-85
2022/08/24 17:52:33;;;;;;;;;;;30.00;48.90;;;28.22;50.64;101635.34;12250208;19;19927;-85
2022/08/24 17:56:36;;;;;;;;;;;29.90;48.80;;;28.43;50.87;101685.75;12252786;19;19978;-86
2022/08/24 18:00:38;;;;;;;;;;;29.90;48.80;;;28.32;50.55;101679.94;12254581;19;20284;-86
2022/08/24 18:04:39;;;;;;;;;;;29.80;48.90;;;28.24;50.58;101689.72;12254640;19;19922;-85
2022/08/24 18:08:40;;;;;;;;;;;29.80;48.80;;;28.08;50.95;101684.44;12255078;19;20399;-86
2022/08/24 18:12:42;;;;;;;;;;;29.70;48.90;;;27.69;50.98;101633.44;12249409;19;19980;-85
2022/08/24 18:16:44;;;;;;;;;;;29.60;48.80;;;27.93;50.59;101683.53;12252236;19;19911;-86
2022/08/24 18:20:46;;;;;;;;;;;29.50;48.90;;;27.90;50.42;101690.09;12251903;19;19923;-85
2022/08/24 18:24:47;;;;;;;;;;;29.60;49.00;;;27.96;50.74;101707.34;12252914;19;19910;-87
2022/08/24 18:28:49;;;;;;;;;;;29.50;49.00;;;27.98;50.79;101721.44;12248664;19;19915;-86
2022/08/24 18:32:51;;;;;;;;;;;29.50;49.10;;;27.99;50.68;101723.09;12249090;19;19919;-85
2022/08/24 18:36:52;;;;;;;;;;;29.30;49.10;;;27.87;50.65;101713.75;12250428;19;19919;-87
2022/08/24 18:40:54;;;;;;;;;;;29.30;49.00;;;27.70;50.90;101692.31;12251945;19;20267;-88
2022/08/24 18:44:55;;;;;;;;;;;29.30;49.10;;;27.91;50.53;101731.19;12252048;19;19947;-88
2022/08/24 18:48:57;;;;;;;;;;;29.30;49.10;;;27.61;50.51;101687.16;12246444;19;19915;-87
2022/08/24 18:52:59;;;;;;;;;;;29.30;49.10;;;27.49;50.79;101686.69;12249483;19;20322;-86
2022/08/24 18:57:00;;;;;;;;;;;29.20;49.10;;;27.67;50.83;101737.47;12249259;19;20250;-86
2022/08/24 19:01:02;;;;;;;;;;;29.20;49.10;;;27.60;50.69;101737.31;12244226;19;19910;-86